createdAt,value
2023-04-02T00:00:11.956Z,7.77
2023-04-02T00:01:01.987Z,7.79
2023-04-02T00:01:39.775Z,7.82
2023-04-02T00:02:23.674Z,7.77
2023-04-02T00:02:58.693Z,7.73
2023-04-02T00:03:46.075Z,7.75
2023-04-02T00:04:22.429Z,7.77
2023-04-02T00:05:34.671Z,7.72
2023-04-02T00:06:30.252Z,7.72
2023-04-02T00:07:33.810Z,7.76
2023-04-02T00:08:18.375Z,7.80
2023-04-02T00:08:50.829Z,7.75
2023-04-02T00:09:27.778Z,7.75
2023-04-02T00:09:59.690Z,7.79
2023-04-02T00:10:35.202Z,7.76
2023-04-02T00:11:08.082Z,7.79
2023-04-02T00:11:54.789Z,7.77
2023-04-02T00:12:26.496Z,7.76
2023-04-02T00:13:31.082Z,7.79
2023-04-02T00:14:04.445Z,7.76
2023-04-02T00:14:36.656Z,7.73
2023-04-02T00:15:12.975Z,7.66
2023-04-02T00:15:49.125Z,7.75
2023-04-02T00:16:23.929Z,7.73
2023-04-02T00:16:57.847Z,7.75
2023-04-02T00:17:29.470Z,7.77
2023-04-02T00:18:02.078Z,7.75
2023-04-02T00:18:37.108Z,7.73
2023-04-02T00:19:17.244Z,7.76
2023-04-02T00:19:51.818Z,7.77
2023-04-02T00:20:26.068Z,7.79
2023-04-02T00:21:11.464Z,7.80
2023-04-02T00:21:45.776Z,7.80
2023-04-02T00:22:20.365Z,7.79
2023-04-02T00:22:52.276Z,7.76
2023-04-02T00:23:24.355Z,7.77
2023-04-02T00:23:59.366Z,7.79
2023-04-02T00:24:32.641Z,7.85
2023-04-02T00:25:13.840Z,7.80
2023-04-02T00:25:46.342Z,7.83
2023-04-02T00:26:22.145Z,7.83
2023-04-02T00:26:55.248Z,7.83
2023-04-02T00:27:27.339Z,7.83
2023-04-02T00:27:58.943Z,7.83
2023-04-02T00:28:31.055Z,7.82
2023-04-02T00:29:05.533Z,7.80
2023-04-02T00:29:37.188Z,7.82
2023-04-02T00:30:12.936Z,7.79
2023-04-02T00:30:50.382Z,7.79
2023-04-02T00:31:22.434Z,7.75
2023-04-02T00:31:54.860Z,7.76
2023-04-02T00:32:36.562Z,7.75
2023-04-02T00:33:16.281Z,7.70
2023-04-02T00:33:49.668Z,7.69
2023-04-02T00:34:25.945Z,7.69
2023-04-02T00:34:58.538Z,7.70
2023-04-02T00:35:31.153Z,7.72
2023-04-02T00:36:07.809Z,7.67
2023-04-02T00:36:39.627Z,7.66
2023-04-02T00:37:24.045Z,7.67
2023-04-02T00:37:56.760Z,7.67
2023-04-02T00:38:33.573Z,7.72
2023-04-02T00:39:17.809Z,7.72
2023-04-02T00:39:53.323Z,7.72
2023-04-02T00:40:28.387Z,7.70
2023-04-02T00:41:03.949Z,7.70
2023-04-02T00:41:38.806Z,7.72
2023-04-02T00:42:13.168Z,7.72
2023-04-02T00:42:46.505Z,7.73
2023-04-02T00:43:18.906Z,7.69
2023-04-02T00:43:51.971Z,7.69
2023-04-02T00:44:23.818Z,7.70
2023-04-02T00:44:56.055Z,7.67
2023-04-02T00:45:35.490Z,7.66
2023-04-02T00:46:19.404Z,7.66
2023-04-02T00:46:52.438Z,7.67
2023-04-02T00:47:27.377Z,7.65
2023-04-02T00:48:13.430Z,7.59
2023-04-02T00:48:49.151Z,7.62
2023-04-02T00:49:30.701Z,7.62
2023-04-02T00:50:18.716Z,7.61
2023-04-02T00:50:53.185Z,7.56
2023-04-02T00:51:31.206Z,7.61
2023-04-02T00:52:13.301Z,7.62
2023-04-02T00:52:48.203Z,7.63
2023-04-02T00:53:29.811Z,7.56
2023-04-02T00:54:04.998Z,7.55
2023-04-02T00:54:56.847Z,7.52
2023-04-02T00:55:36.550Z,7.56
2023-04-02T00:56:17.436Z,7.58
2023-04-02T00:56:53.749Z,7.56
2023-04-02T00:57:28.304Z,7.62
2023-04-02T00:58:01.470Z,7.67
2023-04-02T00:58:36.737Z,7.69
2023-04-02T00:59:23.786Z,7.70
2023-04-02T00:59:58.193Z,7.72
2023-04-02T01:00:36.124Z,7.73
2023-04-02T01:01:16.954Z,7.73
2023-04-02T01:01:54.495Z,7.73
2023-04-02T01:02:31.083Z,7.75
2023-04-02T01:03:18.372Z,7.70
2023-04-02T01:04:02.160Z,7.72
2023-04-02T01:04:35.124Z,7.75
2023-04-02T01:05:15.880Z,7.73
2023-04-02T01:05:50.419Z,7.76
2023-04-02T01:06:22.271Z,7.77
2023-04-02T01:06:54.532Z,7.70
2023-04-02T01:08:07.044Z,7.79
2023-04-02T01:09:23.627Z,7.87
2023-04-02T01:10:04.392Z,7.82
2023-04-02T01:11:13.321Z,7.86
2023-04-02T01:11:53.932Z,7.86
2023-04-02T01:12:43.343Z,7.89
2023-04-02T01:13:25.693Z,7.87
2023-04-02T01:14:36.907Z,7.86
2023-04-02T01:15:11.544Z,7.82
2023-04-02T01:16:19.923Z,7.82
2023-04-02T01:16:54.202Z,7.80
2023-04-02T01:17:46.831Z,7.77
2023-04-02T01:18:46.312Z,7.77
2023-04-02T01:19:27.208Z,7.76
2023-04-02T01:20:26.680Z,7.70
2023-04-02T01:21:03.501Z,7.72
2023-04-02T01:21:52.901Z,7.67
2023-04-02T01:22:52.260Z,7.67
2023-04-02T01:23:38.658Z,7.69
2023-04-02T01:24:13.461Z,7.70
2023-04-02T01:24:45.905Z,7.76
2023-04-02T01:25:23.601Z,7.79
2023-04-02T01:25:59.983Z,7.77
2023-04-02T01:26:58.711Z,7.79
2023-04-02T01:27:39.792Z,7.79
2023-04-02T01:28:43.495Z,7.80
2023-04-02T01:29:26.390Z,7.83
2023-04-02T01:30:00.674Z,7.86
2023-04-02T01:30:36.701Z,7.89
2023-04-02T01:31:10.646Z,7.86
2023-04-02T01:31:44.372Z,7.87
2023-04-02T01:32:20.122Z,7.91
2023-04-02T01:32:53.384Z,7.90
2023-04-02T01:33:30.385Z,7.90
2023-04-02T01:34:03.948Z,7.93
2023-04-02T01:34:36.456Z,7.94
2023-04-02T01:35:09.309Z,8.03
2023-04-02T01:35:46.495Z,7.98
2023-04-02T01:36:28.001Z,7.96
2023-04-02T01:37:24.464Z,7.90
2023-04-02T01:38:10.505Z,7.89
2023-04-02T01:38:51.089Z,7.90
2023-04-02T01:39:37.768Z,7.87
2023-04-02T01:40:23.996Z,7.90
2023-04-02T01:41:18.810Z,7.93
2023-04-02T01:42:12.046Z,7.90
2023-04-02T01:43:09.822Z,7.94
2023-04-02T01:43:47.790Z,7.96
2023-04-02T01:44:34.819Z,7.91
2023-04-02T01:45:12.410Z,7.91
2023-04-02T01:45:44.828Z,7.91
2023-04-02T01:46:38.398Z,7.93
2023-04-02T01:47:16.687Z,7.93
2023-04-02T01:47:49.052Z,7.94
2023-04-02T01:48:27.585Z,7.94
2023-04-02T01:49:15.111Z,7.91
2023-04-02T01:49:47.693Z,7.94
2023-04-02T01:50:37.515Z,7.90
2023-04-02T01:51:35.261Z,7.94
2023-04-02T01:52:07.692Z,7.91
2023-04-02T01:52:42.329Z,7.91
2023-04-02T01:53:16.882Z,7.90
2023-04-02T01:53:48.816Z,7.90
2023-04-02T01:54:21.562Z,7.89
2023-04-02T01:54:53.784Z,7.93
2023-04-02T01:55:39.251Z,7.91
2023-04-02T01:56:11.125Z,7.90
2023-04-02T01:56:44.446Z,7.96
2023-04-02T01:57:16.604Z,7.97
2023-04-02T01:57:51.493Z,8.00
2023-04-02T01:58:29.314Z,8.03
2023-04-02T01:59:02.882Z,8.04
2023-04-02T01:59:35.865Z,8.01
2023-04-02T02:00:12.596Z,8.01
2023-04-02T02:00:51.070Z,8.00
2023-04-02T02:01:27.699Z,8.01
2023-04-02T02:02:04.421Z,7.91
2023-04-02T02:02:36.370Z,7.89
2023-04-02T02:03:10.219Z,7.82
2023-04-02T02:03:43.754Z,7.86
2023-04-02T02:04:16.756Z,7.86
2023-04-02T02:04:48.866Z,7.83
2023-04-02T02:05:25.270Z,7.76
2023-04-02T02:05:57.894Z,7.73
2023-04-02T02:06:29.714Z,7.75
2023-04-02T02:07:02.621Z,7.75
2023-04-02T02:07:34.618Z,7.73
2023-04-02T02:08:10.857Z,7.72
2023-04-02T02:08:53.747Z,7.70
2023-04-02T02:09:28.988Z,7.65
2023-04-02T02:10:01.127Z,7.67
2023-04-02T02:10:39.111Z,7.66
2023-04-02T02:11:16.363Z,7.63
2023-04-02T02:11:48.637Z,7.62
2023-04-02T02:12:20.356Z,7.61
2023-04-02T02:12:52.056Z,7.61
2023-04-02T02:13:23.736Z,7.59
2023-04-02T02:14:15.611Z,7.56
2023-04-02T02:14:49.169Z,7.46
2023-04-02T02:15:23.128Z,7.49
2023-04-02T02:16:00.479Z,7.46
2023-04-02T02:16:41.658Z,7.45
2023-04-02T02:17:21.601Z,7.51
2023-04-02T02:17:59.430Z,7.48
2023-04-02T02:18:31.692Z,7.45
2023-04-02T02:19:05.223Z,7.48
2023-04-02T02:19:40.046Z,7.52
2023-04-02T02:20:13.492Z,7.52
2023-04-02T02:20:45.517Z,7.49
2023-04-02T02:21:39.928Z,7.48
2023-04-02T02:22:14.590Z,7.41
2023-04-02T02:22:48.005Z,7.41
2023-04-02T02:23:21.352Z,7.46
2023-04-02T02:23:53.906Z,7.48
2023-04-02T02:24:29.385Z,7.51
2023-04-02T02:25:05.442Z,7.54
2023-04-02T02:25:37.878Z,7.52
2023-04-02T02:26:13.251Z,7.48
2023-04-02T02:26:48.183Z,7.42
2023-04-02T02:27:22.784Z,7.44
2023-04-02T02:28:03.713Z,7.38
2023-04-02T02:28:41.335Z,7.39
2023-04-02T02:29:17.918Z,7.39
2023-04-02T02:30:07.582Z,7.34
2023-04-02T02:30:44.825Z,7.32
2023-04-02T02:31:23.106Z,7.31
2023-04-02T02:31:56.260Z,7.32
2023-04-02T02:32:31.139Z,7.32
2023-04-02T02:33:07.001Z,7.25
2023-04-02T02:33:52.867Z,7.25
2023-04-02T02:34:33.990Z,7.25
2023-04-02T02:35:16.777Z,7.24
2023-04-02T02:36:07.799Z,7.25
2023-04-02T02:36:56.685Z,7.27
2023-04-02T02:37:37.554Z,7.32
2023-04-02T02:38:29.117Z,7.28
2023-04-02T02:39:20.534Z,7.24
2023-04-02T02:39:55.130Z,7.27
2023-04-02T02:40:40.903Z,7.29
2023-04-02T02:41:24.758Z,7.27
2023-04-02T02:42:10.554Z,7.27
2023-04-02T02:42:51.613Z,7.24
2023-04-02T02:43:24.454Z,7.24
2023-04-02T02:44:08.337Z,7.27
2023-04-02T02:44:44.349Z,7.28
2023-04-02T02:45:25.013Z,7.25
2023-04-02T02:45:57.724Z,7.21
2023-04-02T02:46:30.701Z,7.15
2023-04-02T02:47:13.922Z,7.09
2023-04-02T02:47:46.754Z,7.12
2023-04-02T02:48:21.149Z,7.05
2023-04-02T02:48:55.810Z,7.11
2023-04-02T02:49:32.048Z,7.14
2023-04-02T02:50:08.710Z,7.09
2023-04-02T02:50:41.796Z,7.09
2023-04-02T02:51:23.664Z,7.09
2023-04-02T02:52:04.432Z,7.09
2023-04-02T02:52:38.241Z,7.11
2023-04-02T02:53:25.522Z,7.14
2023-04-02T02:54:03.292Z,7.05
2023-04-02T02:54:41.488Z,7.12
2023-04-02T02:55:20.011Z,7.14
2023-04-02T02:55:58.250Z,7.12
2023-04-02T02:56:34.616Z,7.15
2023-04-02T02:57:10.078Z,7.12
2023-04-02T02:57:48.460Z,7.14
2023-04-02T02:58:26.674Z,7.14
2023-04-02T02:59:00.264Z,7.18
2023-04-02T02:59:32.324Z,7.12
2023-04-02T03:00:06.911Z,7.18
2023-04-02T03:00:40.170Z,7.17
2023-04-02T03:01:12.240Z,7.18
2023-04-02T03:01:44.542Z,7.19
2023-04-02T03:02:16.425Z,7.18
2023-04-02T03:02:49.602Z,7.17
2023-04-02T03:03:24.743Z,7.17
2023-04-02T03:03:56.869Z,7.15
2023-04-02T03:04:35.812Z,7.14
2023-04-02T03:05:08.333Z,7.08
2023-04-02T03:05:41.404Z,7.15
2023-04-02T03:06:16.819Z,7.14
2023-04-02T03:06:58.759Z,7.09
2023-04-02T03:07:31.876Z,7.11
2023-04-02T03:08:06.422Z,7.09
2023-04-02T03:08:43.542Z,7.08
2023-04-02T03:09:41.862Z,7.04
2023-04-02T03:10:25.082Z,7.04
2023-04-02T03:11:05.308Z,6.96
2023-04-02T03:12:02.246Z,6.97
2023-04-02T03:12:51.742Z,7.00
2023-04-02T03:13:39.015Z,7.00
2023-04-02T03:14:36.759Z,7.05
2023-04-02T03:15:18.752Z,7.08
2023-04-02T03:15:56.047Z,7.12
2023-04-02T03:16:36.154Z,7.11
2023-04-02T03:17:18.768Z,7.15
2023-04-02T03:18:05.763Z,7.15
2023-04-02T03:18:44.204Z,7.21
2023-04-02T03:20:01.595Z,7.21
2023-04-02T03:20:33.263Z,7.25
2023-04-02T03:21:15.261Z,7.27
2023-04-02T03:21:55.014Z,7.21
2023-04-02T03:22:35.457Z,7.28
2023-04-02T03:23:27.118Z,7.25
2023-04-02T03:24:03.705Z,7.29
2023-04-02T03:24:44.189Z,7.27
2023-04-02T03:25:28.107Z,7.31
2023-04-02T03:26:13.578Z,7.31
2023-04-02T03:27:01.467Z,7.29
2023-04-02T03:27:37.232Z,7.29
2023-04-02T03:28:16.939Z,7.29
2023-04-02T03:29:15.569Z,7.35
2023-04-02T03:30:03.966Z,7.36
2023-04-02T03:30:42.040Z,7.36
2023-04-02T03:31:22.913Z,7.39
2023-04-02T03:31:56.723Z,7.42
2023-04-02T03:32:34.978Z,7.44
2023-04-02T03:33:18.906Z,7.46
2023-04-02T03:33:56.797Z,7.46
2023-04-02T03:34:44.416Z,7.46
2023-04-02T03:35:24.644Z,7.45
2023-04-02T03:36:01.387Z,7.48
2023-04-02T03:36:43.756Z,7.51
2023-04-02T03:37:26.146Z,7.52
2023-04-02T03:38:04.849Z,7.48
2023-04-02T03:38:44.683Z,7.46
2023-04-02T03:39:36.359Z,7.42
2023-04-02T03:40:18.704Z,7.44
2023-04-02T03:41:07.524Z,7.44
2023-04-02T03:41:45.619Z,7.38
2023-04-02T03:42:27.449Z,7.38
2023-04-02T03:43:02.229Z,7.36
2023-04-02T03:43:40.868Z,7.32
2023-04-02T03:44:27.958Z,7.31
2023-04-02T03:45:17.022Z,7.36
2023-04-02T03:45:53.532Z,7.29
2023-04-02T03:46:39.480Z,7.29
2023-04-02T03:47:18.244Z,7.29
2023-04-02T03:48:48.209Z,7.34
2023-04-02T03:49:27.950Z,7.25
2023-04-02T03:50:05.741Z,7.28
2023-04-02T03:50:52.692Z,7.29
2023-04-02T03:51:30.954Z,7.24
2023-04-02T03:52:11.640Z,7.19
2023-04-02T03:52:43.511Z,7.21
2023-04-02T03:53:15.142Z,7.17
2023-04-02T03:53:47.648Z,7.24
2023-04-02T03:54:19.891Z,7.21
2023-04-02T03:54:54.277Z,7.19
2023-04-02T03:55:29.803Z,7.14
2023-04-02T03:56:02.410Z,7.18
2023-04-02T03:56:40.405Z,7.12
2023-04-02T03:57:36.635Z,7.07
2023-04-02T03:58:17.714Z,7.08
2023-04-02T03:59:00.375Z,7.08
2023-04-02T03:59:43.403Z,7.08
2023-04-02T04:00:32.623Z,7.07
2023-04-02T04:01:28.697Z,7.11
2023-04-02T04:02:18.586Z,7.08
2023-04-02T04:02:54.840Z,7.04
2023-04-02T04:03:41.590Z,7.04
2023-04-02T04:04:20.985Z,7.00
2023-04-02T04:04:54.756Z,6.94
2023-04-02T04:05:32.782Z,7.03
2023-04-02T04:06:18.010Z,7.00
2023-04-02T04:06:52.849Z,7.00
2023-04-02T04:07:44.473Z,6.98
2023-04-02T04:08:20.509Z,6.98
2023-04-02T04:09:01.104Z,6.88
2023-04-02T04:09:36.345Z,6.86
2023-04-02T04:10:17.013Z,6.79
2023-04-02T04:10:58.878Z,6.84
2023-04-02T04:11:34.949Z,6.91
2023-04-02T04:12:28.228Z,6.94
2023-04-02T04:13:09.274Z,6.96
2023-04-02T04:13:47.103Z,6.97
2023-04-02T04:14:20.593Z,7.00
2023-04-02T04:15:00.753Z,7.09
2023-04-02T04:15:52.987Z,7.05
2023-04-02T04:16:43.004Z,6.97
2023-04-02T04:17:29.912Z,6.93
2023-04-02T04:18:21.597Z,6.97
2023-04-02T04:19:04.057Z,6.93
2023-04-02T04:19:47.248Z,6.98
2023-04-02T04:20:33.976Z,6.90
2023-04-02T04:21:13.439Z,6.93
2023-04-02T04:21:46.302Z,6.96
2023-04-02T04:22:30.513Z,6.97
2023-04-02T04:23:30.084Z,6.96
2023-04-02T04:24:04.823Z,6.93
2023-04-02T04:24:39.452Z,6.97
2023-04-02T04:25:29.706Z,7.01
2023-04-02T04:26:09.833Z,6.96
2023-04-02T04:26:49.698Z,6.93
2023-04-02T04:27:33.728Z,6.94
2023-04-02T04:28:08.298Z,7.07
2023-04-02T04:29:12.599Z,7.07
2023-04-02T04:30:06.143Z,7.09
2023-04-02T04:31:02.073Z,7.09
2023-04-02T04:31:41.787Z,7.01
2023-04-02T04:32:39.310Z,7.03
2023-04-02T04:33:34.689Z,7.11
2023-04-02T04:34:13.075Z,7.12
2023-04-02T04:34:51.814Z,7.18
2023-04-02T04:35:48.787Z,7.12
2023-04-02T04:36:30.850Z,7.09
2023-04-02T04:37:08.004Z,7.08
2023-04-02T04:37:43.427Z,7.01
2023-04-02T04:38:15.669Z,7.05
2023-04-02T04:38:55.658Z,7.07
2023-04-02T04:39:42.482Z,7.08
2023-04-02T04:40:27.162Z,7.08
2023-04-02T04:41:12.673Z,7.07
2023-04-02T04:41:46.459Z,7.08
2023-04-02T04:42:25.759Z,7.12
2023-04-02T04:43:03.098Z,7.12
2023-04-02T04:44:23.737Z,7.15
2023-04-02T04:45:31.540Z,7.24
2023-04-02T04:46:11.115Z,7.31
2023-04-02T04:46:49.300Z,7.35
2023-04-02T04:47:30.849Z,7.38
2023-04-02T04:48:45.766Z,7.49
2023-04-02T04:49:41.262Z,7.56
2023-04-02T04:50:36.953Z,7.72
2023-04-02T04:51:22.381Z,7.66
2023-04-02T04:52:14.590Z,7.62
2023-04-02T04:52:46.370Z,7.51
2023-04-02T04:53:23.407Z,7.54
2023-04-02T04:53:55.870Z,7.46
2023-04-02T04:54:28.682Z,7.56
2023-04-02T04:55:01.093Z,7.56
2023-04-02T04:55:42.936Z,7.66
2023-04-02T04:56:19.920Z,7.55
2023-04-02T04:56:56.844Z,7.70
2023-04-02T04:57:32.927Z,7.70
2023-04-02T04:58:25.959Z,7.67
2023-04-02T04:59:05.007Z,7.72
2023-04-02T04:59:47.200Z,7.67
2023-04-02T05:00:42.360Z,7.67
2023-04-02T05:01:24.197Z,7.66
2023-04-02T05:02:07.665Z,7.82
2023-04-02T05:02:50.733Z,7.77
2023-04-02T05:03:59.779Z,7.90
2023-04-02T05:04:36.721Z,7.82
2023-04-02T05:05:19.252Z,7.86
2023-04-02T05:05:51.558Z,7.90
2023-04-02T05:06:34.376Z,8.03
2023-04-02T05:07:44.850Z,8.04
2023-04-02T05:08:28.020Z,8.07
2023-04-02T05:09:06.755Z,7.97
2023-04-02T05:09:58.045Z,7.93
2023-04-02T05:10:44.186Z,7.98
2023-04-02T05:11:30.249Z,8.13
2023-04-02T05:12:32.984Z,8.27
2023-04-02T05:13:39.362Z,8.55
2023-04-02T05:14:29.845Z,8.64
2023-04-02T05:15:22.777Z,8.77
2023-04-02T05:16:04.879Z,8.86
2023-04-02T05:16:48.992Z,8.93
2023-04-02T05:17:39.710Z,9.06
2023-04-02T05:18:29.004Z,9.13
2023-04-02T05:19:27.334Z,9.16
2023-04-02T05:20:32.853Z,9.17
2023-04-02T05:21:14.161Z,9.17
2023-04-02T05:22:12.425Z,9.19
2023-04-02T05:23:25.603Z,9.24
2023-04-02T05:24:22.696Z,9.23
2023-04-02T05:25:09.677Z,9.19
2023-04-02T05:25:59.840Z,9.19
2023-04-02T05:26:44.408Z,9.23
2023-04-02T05:27:25.145Z,9.22
2023-04-02T05:28:25.791Z,9.17
2023-04-02T05:29:10.430Z,9.23
2023-04-02T05:29:46.427Z,9.27
2023-04-02T05:30:20.896Z,9.23
2023-04-02T05:31:03.253Z,9.28
2023-04-02T05:32:00.868Z,9.30
2023-04-02T05:32:37.552Z,9.33
2023-04-02T05:33:33.008Z,9.41
2023-04-02T05:34:04.787Z,9.51
2023-04-02T05:34:39.287Z,9.54
2023-04-02T05:35:17.000Z,9.57
2023-04-02T05:35:56.061Z,9.65
2023-04-02T05:36:29.905Z,9.72
2023-04-02T05:37:02.040Z,9.74
2023-04-02T05:37:34.456Z,9.79
2023-04-02T05:38:06.695Z,9.72
2023-04-02T05:38:44.719Z,9.75
2023-04-02T05:39:22.823Z,9.77
2023-04-02T05:40:00.719Z,9.81
2023-04-02T05:40:39.942Z,9.82
2023-04-02T05:41:38.362Z,9.98
2023-04-02T05:42:18.817Z,10.12
2023-04-02T05:42:53.208Z,10.22
2023-04-02T05:43:26.782Z,10.13
2023-04-02T05:44:07.783Z,10.14
2023-04-02T05:44:48.993Z,10.16
2023-04-02T05:45:37.357Z,10.19
2023-04-02T05:46:22.553Z,10.17
2023-04-02T05:47:01.544Z,10.26
2023-04-02T05:47:33.714Z,10.12
2023-04-02T05:48:21.118Z,10.29
2023-04-02T05:48:56.901Z,10.30
2023-04-02T05:49:48.726Z,10.32
2023-04-02T05:50:27.254Z,10.29
2023-04-02T05:51:00.137Z,10.33
2023-04-02T05:51:41.399Z,10.43
2023-04-02T05:52:18.116Z,10.46
2023-04-02T05:53:04.044Z,10.56
2023-04-02T05:53:41.124Z,10.51
2023-04-02T05:54:25.098Z,10.60
2023-04-02T05:55:11.459Z,10.57
2023-04-02T05:55:54.970Z,10.67
2023-04-02T05:56:32.676Z,10.71
2023-04-02T05:57:12.040Z,10.80
2023-04-02T05:58:06.985Z,10.91
2023-04-02T05:59:00.823Z,10.90
2023-04-02T05:59:38.502Z,10.95
2023-04-02T06:00:18.286Z,10.95
2023-04-02T06:01:01.594Z,10.97
2023-04-02T06:02:03.929Z,11.04
2023-04-02T06:02:41.479Z,10.98
2023-04-02T06:03:34.500Z,11.07
2023-04-02T06:04:15.295Z,10.95
2023-04-02T06:04:47.417Z,10.95
2023-04-02T06:05:26.529Z,10.87
2023-04-02T06:06:03.332Z,10.84
2023-04-02T06:06:44.114Z,10.91
2023-04-02T06:07:21.122Z,10.94
2023-04-02T06:08:06.393Z,11.12
2023-04-02T06:08:43.636Z,11.18
2023-04-02T06:09:22.212Z,11.29
2023-04-02T06:10:06.270Z,11.22
2023-04-02T06:10:45.857Z,11.26
2023-04-02T06:11:37.114Z,11.12
2023-04-02T06:12:08.670Z,11.19
2023-04-02T06:12:48.655Z,11.29
2023-04-02T06:13:21.015Z,11.05
2023-04-02T06:13:52.738Z,11.23
2023-04-02T06:14:24.325Z,11.28
2023-04-02T06:14:56.173Z,11.33
2023-04-02T06:15:27.993Z,11.29
2023-04-02T06:15:59.736Z,11.43
2023-04-02T06:16:33.425Z,11.46
2023-04-02T06:17:05.639Z,11.52
2023-04-02T06:18:06.973Z,11.53
2023-04-02T06:18:38.899Z,11.69
2023-04-02T06:19:20.821Z,11.81
2023-04-02T06:19:53.573Z,11.84
2023-04-02T06:20:26.180Z,11.95
2023-04-02T06:20:57.876Z,11.94
2023-04-02T06:21:29.548Z,12.05
2023-04-02T06:22:11.569Z,12.10
2023-04-02T06:22:46.198Z,12.17
2023-04-02T06:23:38.595Z,12.08
2023-04-02T06:24:14.411Z,12.11
2023-04-02T06:24:50.400Z,12.13
2023-04-02T06:25:30.191Z,12.11
2023-04-02T06:26:14.919Z,12.17
2023-04-02T06:26:59.922Z,12.29
2023-04-02T06:27:33.689Z,12.35
2023-04-02T06:28:11.937Z,12.44
2023-04-02T06:28:59.917Z,12.37
2023-04-02T06:29:38.502Z,12.39
2023-04-02T06:30:19.476Z,12.44
2023-04-02T06:30:58.164Z,12.50
2023-04-02T06:31:42.690Z,12.60
2023-04-02T06:32:14.375Z,12.70
2023-04-02T06:32:46.182Z,12.69
2023-04-02T06:33:17.848Z,12.77
2023-04-02T06:33:55.312Z,12.76
2023-04-02T06:34:29.654Z,12.87
2023-04-02T06:35:01.290Z,12.82
2023-04-02T06:36:09.275Z,13.02
2023-04-02T06:36:41.616Z,13.07
2023-04-02T06:37:35.576Z,13.03
2023-04-02T06:38:20.313Z,13.10
2023-04-02T06:38:54.334Z,13.24
2023-04-02T06:39:27.442Z,13.07
2023-04-02T06:39:59.510Z,13.24
2023-04-02T06:40:40.027Z,13.27
2023-04-02T06:41:22.900Z,13.44
2023-04-02T06:42:04.645Z,13.90
2023-04-02T06:42:40.214Z,13.59
2023-04-02T06:43:37.448Z,13.92
2023-04-02T06:44:22.655Z,14.60
2023-04-02T06:44:54.529Z,14.43
2023-04-02T06:45:32.387Z,14.44
2023-04-02T06:46:28.333Z,14.85
2023-04-02T06:47:07.381Z,14.51
2023-04-02T06:47:44.256Z,14.45
2023-04-02T06:48:19.414Z,14.37
2023-04-02T06:48:54.473Z,14.37
2023-04-02T06:49:45.958Z,14.47
2023-04-02T06:50:42.927Z,14.50
2023-04-02T06:51:18.321Z,14.33
2023-04-02T06:51:53.920Z,14.38
2023-04-02T06:52:44.856Z,14.63
2023-04-02T06:53:23.520Z,14.73
2023-04-02T06:53:56.227Z,14.73
2023-04-02T06:54:27.867Z,14.81
2023-04-02T06:54:59.490Z,14.74
2023-04-02T06:55:46.646Z,14.56
2023-04-02T06:56:46.206Z,14.41
2023-04-02T06:57:17.928Z,14.50
2023-04-02T06:57:49.643Z,14.63
2023-04-02T06:58:21.705Z,14.78
2023-04-02T06:58:53.561Z,14.67
2023-04-02T06:59:25.372Z,14.40
2023-04-02T06:59:56.936Z,14.37
2023-04-02T07:00:36.212Z,14.29
2023-04-02T07:01:17.924Z,14.17
2023-04-02T07:02:06.777Z,14.10
2023-04-02T07:02:41.207Z,14.01
2023-04-02T07:03:30.569Z,14.10
2023-04-02T07:04:02.389Z,14.17
2023-04-02T07:04:35.672Z,14.29
2023-04-02T07:05:11.929Z,14.57
2023-04-02T07:05:43.701Z,14.48
2023-04-02T07:06:17.707Z,14.59
2023-04-02T07:06:49.384Z,14.37
2023-04-02T07:07:20.993Z,14.44
2023-04-02T07:07:52.658Z,14.29
2023-04-02T07:08:24.755Z,14.24
2023-04-02T07:08:56.346Z,14.32
2023-04-02T07:09:27.939Z,14.56
2023-04-02T07:09:59.574Z,14.71
2023-04-02T07:10:31.198Z,14.68
2023-04-02T07:11:02.820Z,14.77
2023-04-02T07:11:34.603Z,14.75
2023-04-02T07:12:13.224Z,14.80
2023-04-02T07:12:44.843Z,14.94
2023-04-02T07:13:22.221Z,15.12
2023-04-02T07:13:53.823Z,15.40
2023-04-02T07:14:25.471Z,15.42
2023-04-02T07:14:57.116Z,15.59
2023-04-02T07:15:29.376Z,15.53
2023-04-02T07:16:01.408Z,15.50
2023-04-02T07:16:36.662Z,15.06
2023-04-02T07:17:16.706Z,15.19
2023-04-02T07:17:48.407Z,15.42
2023-04-02T07:18:32.195Z,15.97
2023-04-02T07:19:04.364Z,16.10
2023-04-02T07:19:36.205Z,16.38
2023-04-02T07:20:24.432Z,16.76
2023-04-02T07:20:56.759Z,16.35
2023-04-02T07:21:28.481Z,17.79
2023-04-02T07:22:00.456Z,18.89
2023-04-02T07:22:32.072Z,18.99
2023-04-02T07:23:04.062Z,18.95
2023-04-02T07:23:35.693Z,19.12
2023-04-02T07:24:07.578Z,18.98
2023-04-02T07:24:39.157Z,18.17
2023-04-02T07:25:10.916Z,17.68
2023-04-02T07:25:53.209Z,17.44
2023-04-02T07:26:27.434Z,17.62
2023-04-02T07:26:58.989Z,17.81
2023-04-02T07:27:31.043Z,17.28
2023-04-02T07:28:02.677Z,17.21
2023-04-02T07:28:34.714Z,16.72
2023-04-02T07:29:15.052Z,16.90
2023-04-02T07:29:46.803Z,17.11
2023-04-02T07:30:18.771Z,17.11
2023-04-02T07:30:51.613Z,17.31
2023-04-02T07:31:25.956Z,15.91
2023-04-02T07:31:57.715Z,15.94
2023-04-02T07:32:29.418Z,16.45
2023-04-02T07:33:01.872Z,16.68
2023-04-02T07:33:33.641Z,16.96
2023-04-02T07:34:06.101Z,17.30
2023-04-02T07:34:38.616Z,17.10
2023-04-02T07:35:10.841Z,16.45
2023-04-02T07:35:44.658Z,16.32
2023-04-02T07:36:18.464Z,16.11
2023-04-02T07:36:50.431Z,16.15
2023-04-02T07:37:22.041Z,16.24
2023-04-02T07:37:53.659Z,16.18
2023-04-02T07:38:25.429Z,16.22
2023-04-02T07:38:57.306Z,16.99
2023-04-02T07:39:28.875Z,16.51
2023-04-02T07:40:00.565Z,16.38
2023-04-02T07:40:32.169Z,16.12
2023-04-02T07:41:07.135Z,17.32
2023-04-02T07:41:56.773Z,18.43
2023-04-02T07:42:28.408Z,19.12
2023-04-02T07:43:00.723Z,19.32
2023-04-02T07:43:32.447Z,20.14
2023-04-02T07:44:04.545Z,19.49
2023-04-02T07:44:36.243Z,19.52
2023-04-02T07:45:08.636Z,19.93
2023-04-02T07:45:40.269Z,20.11
2023-04-02T07:46:15.086Z,20.93
2023-04-02T07:46:46.822Z,21.83
2023-04-02T07:47:18.469Z,21.00
2023-04-02T07:47:50.176Z,21.42
2023-04-02T07:48:21.836Z,22.21
2023-04-02T07:48:53.446Z,22.48
2023-04-02T07:49:25.085Z,22.44
2023-04-02T07:49:56.690Z,22.63
2023-04-02T07:50:28.362Z,23.14
2023-04-02T07:51:03.228Z,23.09
2023-04-02T07:51:34.783Z,23.90
2023-04-02T07:52:06.889Z,24.51
2023-04-02T07:52:42.614Z,25.02
2023-04-02T07:53:40.481Z,24.43
2023-04-02T07:54:13.059Z,23.94
2023-04-02T07:54:44.704Z,23.87
2023-04-02T07:55:17.204Z,22.54
2023-04-02T07:55:52.670Z,23.05
2023-04-02T07:56:25.143Z,23.71
2023-04-02T07:56:57.047Z,23.84
2023-04-02T07:57:28.744Z,24.12
2023-04-02T07:58:00.436Z,24.18
2023-04-02T07:58:32.929Z,22.65
2023-04-02T07:59:05.085Z,22.16
2023-04-02T07:59:36.670Z,22.13
2023-04-02T08:00:11.846Z,20.12
2023-04-02T08:00:43.506Z,19.36
2023-04-02T08:01:21.201Z,19.18
2023-04-02T08:01:53.629Z,19.05
2023-04-02T08:02:25.373Z,18.85
2023-04-02T08:02:57.242Z,18.91
2023-04-02T08:03:29.666Z,18.67
2023-04-02T08:04:03.943Z,18.23
2023-04-02T08:04:35.569Z,17.89
2023-04-02T08:05:07.860Z,17.78
2023-04-02T08:05:39.520Z,18.06
2023-04-02T08:06:12.279Z,17.74
2023-04-02T08:06:43.916Z,17.20
2023-04-02T08:07:15.719Z,16.83
2023-04-02T08:07:56.951Z,17.02
2023-04-02T08:08:28.799Z,17.32
2023-04-02T08:09:00.787Z,17.26
2023-04-02T08:09:32.397Z,17.47
2023-04-02T08:10:05.017Z,17.37
2023-04-02T08:10:36.626Z,17.23
2023-04-02T08:11:09.014Z,16.99
2023-04-02T08:11:42.216Z,17.20
2023-04-02T08:12:14.160Z,16.83
2023-04-02T08:12:46.128Z,16.70
2023-04-02T08:13:19.812Z,16.55
2023-04-02T08:13:52.186Z,16.44
2023-04-02T08:14:23.845Z,16.29
2023-04-02T08:14:55.907Z,16.02
2023-04-02T08:15:27.500Z,15.74
2023-04-02T08:15:59.879Z,15.93
2023-04-02T08:16:54.192Z,15.39
2023-04-02T08:17:27.007Z,15.01
2023-04-02T08:17:58.823Z,14.94
2023-04-02T08:18:30.985Z,14.95
2023-04-02T08:19:02.920Z,14.81
2023-04-02T08:19:44.321Z,14.94
2023-04-02T08:20:23.646Z,14.99
2023-04-02T08:20:56.047Z,14.94
2023-04-02T08:21:27.800Z,15.13
2023-04-02T08:21:59.534Z,14.89
2023-04-02T08:22:31.630Z,14.77
2023-04-02T08:23:04.083Z,14.74
2023-04-02T08:23:37.129Z,14.73
2023-04-02T08:24:08.728Z,14.64
2023-04-02T08:24:40.375Z,14.73
2023-04-02T08:25:12.325Z,14.71
2023-04-02T08:25:46.641Z,14.56
2023-04-02T08:26:18.925Z,14.68
2023-04-02T08:26:51.522Z,14.61
2023-04-02T08:27:26.461Z,14.48
2023-04-02T08:27:58.074Z,14.40
2023-04-02T08:28:30.167Z,14.23
2023-04-02T08:29:02.073Z,14.40
2023-04-02T08:29:33.680Z,14.51
2023-04-02T08:30:07.845Z,14.44
2023-04-02T08:30:39.931Z,14.51
2023-04-02T08:31:11.610Z,14.61
2023-04-02T08:31:43.263Z,14.64
2023-04-02T08:32:18.279Z,14.57
2023-04-02T08:32:49.993Z,14.41
2023-04-02T08:33:21.649Z,14.44
2023-04-02T08:33:54.256Z,14.59
2023-04-02T08:34:26.053Z,14.64
2023-04-02T08:34:57.713Z,14.65
2023-04-02T08:35:29.649Z,14.77
2023-04-02T08:36:01.332Z,14.96